createdAt,value
2017-11-17T00:03:13.545Z,23.02
2017-11-17T00:05:42.573Z,22.27
2017-11-17T00:08:13.687Z,26.17
2017-11-17T00:10:47.512Z,24.30
2017-11-17T00:13:19.394Z,22.52
2017-11-17T00:15:49.778Z,28.40
2017-11-17T00:18:21.174Z,26.10
2017-11-17T00:20:50.328Z,23.48
2017-11-17T00:23:23.200Z,25.65
2017-11-17T00:25:56.828Z,35.03
2017-11-17T00:28:26.562Z,24.35
2017-11-17T00:30:54.107Z,29.20
2017-11-17T00:33:21.992Z,35.83
2017-11-17T00:35:49.539Z,24.42
2017-11-17T00:38:17.035Z,23.70
2017-11-17T00:40:44.545Z,20.80
2017-11-17T00:43:14.349Z,27.17
2017-11-17T00:45:42.236Z,20.50
2017-11-17T00:48:10.113Z,24.50
2017-11-17T00:50:37.619Z,30.10
2017-11-17T00:53:05.139Z,22.87
2017-11-17T00:55:32.670Z,30.37
2017-11-17T00:58:00.164Z,27.05
2017-11-17T01:00:27.689Z,26.58
2017-11-17T01:02:55.571Z,33.05
2017-11-17T01:05:23.228Z,25.60
2017-11-17T01:07:50.787Z,26.77
2017-11-17T01:10:19.191Z,24.77
2017-11-17T01:12:46.696Z,29.60
2017-11-17T01:15:14.249Z,31.70
2017-11-17T01:17:41.751Z,29.98
2017-11-17T01:20:09.283Z,26.48
2017-11-17T01:22:37.176Z,28.70
2017-11-17T01:25:04.691Z,25.48
2017-11-17T01:27:33.153Z,25.60
2017-11-17T01:30:00.656Z,34.42
2017-11-17T01:32:28.144Z,33.03
2017-11-17T01:34:55.672Z,23.38
2017-11-17T01:37:23.589Z,36.97
2017-11-17T01:39:51.068Z,33.55
2017-11-17T01:42:18.573Z,30.40
2017-11-17T01:44:46.069Z,29.92
2017-11-17T01:47:15.466Z,26.80
2017-11-17T01:49:42.982Z,27.42
2017-11-17T01:52:10.863Z,26.58
2017-11-17T01:54:38.375Z,29.73
2017-11-17T01:57:05.863Z,30.55
2017-11-17T01:59:33.769Z,41.53
2017-11-17T02:02:02.212Z,33.67
2017-11-17T02:04:30.109Z,28.48
2017-11-17T02:06:57.615Z,26.62
2017-11-17T02:09:26.073Z,26.40
2017-11-17T02:11:53.592Z,27.83
2017-11-17T02:14:22.073Z,30.50
2017-11-17T02:16:49.953Z,28.38
2017-11-17T02:19:17.461Z,23.83
2017-11-17T02:21:44.982Z,24.52
2017-11-17T02:24:12.464Z,37.53
2017-11-17T02:26:39.966Z,27.08
2017-11-17T02:29:07.492Z,25.85
2017-11-17T02:31:35.414Z,33.97
2017-11-17T02:34:02.928Z,25.05
2017-11-17T02:36:31.792Z,29.17
2017-11-17T02:39:00.329Z,21.00
2017-11-17T02:41:28.032Z,24.42
2017-11-17T02:43:55.543Z,24.67
2017-11-17T02:46:23.060Z,32.97
2017-11-17T02:48:50.582Z,22.50
2017-11-17T02:51:18.551Z,31.17
2017-11-17T02:53:46.048Z,23.33
2017-11-17T02:56:13.581Z,23.67
2017-11-17T02:58:41.071Z,26.92
2017-11-17T03:01:08.580Z,28.77
2017-11-17T03:03:36.065Z,25.15
2017-11-17T03:06:03.581Z,30.83
2017-11-17T03:08:31.092Z,23.67
2017-11-17T03:10:58.585Z,26.33
2017-11-17T03:13:26.484Z,37.40
2017-11-17T03:15:53.969Z,25.95
2017-11-17T03:18:21.487Z,29.92
2017-11-17T03:20:48.984Z,31.08
2017-11-17T03:23:16.519Z,30.33
2017-11-17T03:25:44.020Z,41.65
2017-11-17T03:28:11.519Z,30.85
2017-11-17T03:30:39.032Z,36.50
2017-11-17T03:33:06.525Z,28.08
2017-11-17T03:35:34.052Z,35.80
2017-11-17T03:38:01.559Z,26.58
2017-11-17T03:40:29.045Z,29.75
2017-11-17T03:42:56.568Z,29.98
2017-11-17T03:45:24.068Z,38.45
2017-11-17T03:47:51.583Z,33.53
2017-11-17T03:50:19.068Z,32.53
2017-11-17T03:52:46.569Z,30.83
2017-11-17T03:55:14.471Z,23.92
2017-11-17T03:57:42.028Z,28.50
2017-11-17T04:00:09.533Z,34.60
2017-11-17T04:02:37.031Z,30.15
2017-11-17T04:05:04.912Z,35.50
2017-11-17T04:07:32.431Z,27.90
2017-11-17T04:10:00.313Z,37.63
2017-11-17T04:12:28.196Z,26.05
2017-11-17T04:14:57.717Z,28.87
2017-11-17T04:17:25.195Z,39.22
2017-11-17T04:19:52.732Z,32.08
2017-11-17T04:22:20.230Z,32.13
2017-11-17T04:24:47.730Z,46.28
2017-11-17T04:27:15.248Z,37.15
2017-11-17T04:29:42.776Z,27.70
2017-11-17T04:32:10.282Z,32.35
2017-11-17T04:34:38.182Z,34.17
2017-11-17T04:37:05.671Z,38.63
2017-11-17T04:39:35.144Z,30.33
2017-11-17T04:42:02.629Z,37.53
2017-11-17T04:44:30.109Z,36.22
2017-11-17T04:46:57.613Z,36.58
2017-11-17T04:49:25.108Z,28.05
2017-11-17T04:51:52.635Z,37.75
2017-11-17T04:54:20.159Z,37.97
2017-11-17T04:56:48.088Z,37.58
2017-11-17T04:59:15.598Z,32.17
2017-11-17T05:01:43.499Z,38.90
2017-11-17T05:04:11.018Z,36.80
2017-11-17T05:06:38.917Z,27.80
2017-11-17T05:09:08.418Z,24.67
2017-11-17T05:11:35.921Z,39.97
2017-11-17T05:14:03.405Z,38.83
2017-11-17T05:16:31.319Z,35.30
2017-11-17T05:18:59.202Z,37.25
2017-11-17T05:21:26.745Z,31.55
2017-11-17T05:23:55.214Z,38.75
2017-11-17T05:26:22.760Z,34.78
2017-11-17T05:28:50.466Z,36.78
2017-11-17T05:31:17.955Z,36.47
2017-11-17T05:33:45.937Z,38.40
2017-11-17T05:36:13.820Z,27.23
2017-11-17T05:38:41.325Z,41.75
2017-11-17T05:41:08.836Z,35.55
2017-11-17T05:43:38.296Z,39.00
2017-11-17T05:46:06.720Z,27.33
2017-11-17T05:48:34.228Z,26.30
2017-11-17T05:51:02.685Z,42.33
2017-11-17T05:53:31.128Z,32.67
2017-11-17T05:55:59.034Z,38.40
2017-11-17T05:58:27.522Z,37.22
2017-11-17T06:00:55.039Z,31.10
2017-11-17T06:03:22.548Z,37.67
2017-11-17T06:05:50.051Z,33.65
2017-11-17T06:08:18.285Z,32.78
2017-11-17T06:10:45.797Z,34.72
2017-11-17T06:13:13.279Z,35.78
2017-11-17T06:15:41.707Z,27.95
2017-11-17T06:18:10.589Z,39.55
2017-11-17T06:20:38.076Z,36.15
2017-11-17T06:23:05.581Z,31.95
2017-11-17T06:25:33.069Z,35.28
2017-11-17T06:28:00.981Z,25.40
2017-11-17T06:30:29.404Z,43.03
2017-11-17T06:32:56.948Z,29.00
2017-11-17T06:35:24.439Z,29.42
2017-11-17T06:37:52.315Z,32.70
2017-11-17T06:40:20.212Z,31.30
2017-11-17T06:42:48.858Z,31.58
2017-11-17T06:45:18.339Z,26.52
2017-11-17T06:47:45.863Z,31.23
2017-11-17T06:50:13.375Z,31.00
2017-11-17T06:52:41.317Z,39.75
2017-11-17T06:55:08.807Z,32.33
2017-11-17T06:57:36.689Z,38.70
2017-11-17T07:00:04.192Z,38.72
2017-11-17T07:02:31.694Z,30.55
2017-11-17T07:04:59.585Z,27.20
2017-11-17T07:07:27.086Z,51.25
2017-11-17T07:09:55.029Z,37.38
2017-11-17T07:12:22.512Z,33.50
2017-11-17T07:14:50.965Z,38.58
2017-11-17T07:17:18.500Z,34.63
2017-11-17T07:19:45.984Z,26.62
2017-11-17T07:22:13.493Z,31.65
2017-11-17T07:24:41.390Z,46.20
2017-11-17T07:27:09.285Z,42.17
2017-11-17T07:29:36.785Z,43.47
2017-11-17T07:32:04.692Z,40.17
2017-11-17T07:34:32.175Z,45.60
2017-11-17T07:36:59.669Z,48.75
2017-11-17T07:39:27.606Z,39.25
2017-11-17T07:41:55.104Z,31.85
2017-11-17T07:44:23.009Z,33.67
2017-11-17T07:46:51.452Z,43.28
2017-11-17T07:49:19.357Z,37.55
2017-11-17T07:51:46.861Z,40.72
2017-11-17T07:54:14.772Z,34.92
2017-11-17T07:56:42.272Z,39.50
2017-11-17T07:59:09.769Z,37.42
2017-11-17T08:01:37.760Z,33.00
2017-11-17T08:04:05.256Z,41.53
2017-11-17T08:06:32.785Z,38.35
2017-11-17T08:09:01.241Z,34.28
2017-11-17T08:11:28.750Z,46.78
2017-11-17T08:13:56.238Z,32.08
2017-11-17T08:16:24.156Z,43.03
2017-11-17T08:18:51.764Z,46.08
2017-11-17T08:21:25.818Z,38.35
2017-11-17T08:23:55.232Z,38.55
2017-11-17T08:26:22.748Z,31.98
2017-11-17T08:28:50.648Z,39.35
2017-11-17T08:31:19.079Z,36.88
2017-11-17T08:33:46.982Z,39.42
2017-11-17T08:36:14.477Z,38.45
2017-11-17T08:38:42.936Z,37.70
2017-11-17T08:41:10.440Z,41.70
2017-11-17T08:43:38.333Z,33.53
2017-11-17T08:46:05.887Z,33.47
2017-11-17T08:48:33.770Z,33.75
2017-11-17T08:51:02.257Z,32.92
2017-11-17T08:53:29.737Z,40.42
2017-11-17T08:55:57.239Z,36.33
2017-11-17T08:58:25.139Z,40.53
2017-11-17T09:00:52.634Z,43.22
2017-11-17T09:03:20.137Z,48.13
2017-11-17T09:05:48.956Z,36.75
2017-11-17T09:08:16.443Z,37.85
2017-11-17T09:10:43.948Z,41.70
2017-11-17T09:13:11.428Z,34.47
2017-11-17T09:15:38.944Z,32.13
2017-11-17T09:18:06.834Z,39.20
2017-11-17T09:20:34.341Z,31.52
2017-11-17T09:23:01.829Z,43.00
2017-11-17T09:25:29.725Z,35.95
2017-11-17T09:27:59.221Z,40.03
2017-11-17T09:30:26.716Z,39.92
2017-11-17T09:32:54.234Z,35.53
2017-11-17T09:35:21.732Z,41.13
2017-11-17T09:37:51.177Z,37.63
2017-11-17T09:40:19.064Z,42.55
2017-11-17T09:42:47.595Z,38.50
2017-11-17T09:45:15.080Z,50.60
2017-11-17T09:47:43.032Z,58.00
2017-11-17T09:50:10.572Z,52.80
2017-11-17T09:52:38.057Z,47.85
2017-11-17T09:55:05.565Z,36.22
2017-11-17T09:57:33.059Z,45.30
2017-11-17T10:00:00.541Z,41.03
2017-11-17T10:02:28.450Z,36.10
2017-11-17T10:04:55.979Z,48.85
2017-11-17T10:07:23.878Z,40.33
2017-11-17T10:09:51.356Z,48.15
2017-11-17T10:12:18.852Z,40.12
2017-11-17T10:14:46.757Z,35.67
2017-11-17T10:17:14.265Z,28.83
2017-11-17T10:19:42.179Z,40.35
2017-11-17T10:22:10.427Z,46.17
2017-11-17T10:24:38.308Z,33.72
2017-11-17T10:27:05.816Z,38.90
2017-11-17T10:29:33.329Z,46.53
2017-11-17T10:32:00.835Z,39.97
2017-11-17T10:34:28.319Z,35.63
2017-11-17T10:36:56.222Z,42.08
2017-11-17T10:39:25.743Z,33.35
2017-11-17T10:41:53.273Z,47.85
2017-11-17T10:44:20.793Z,32.85
2017-11-17T10:46:48.720Z,32.00
2017-11-17T10:49:16.222Z,46.67
2017-11-17T10:51:43.726Z,47.80
2017-11-17T10:54:11.232Z,43.90
2017-11-17T10:56:38.730Z,48.08
2017-11-17T10:59:08.711Z,40.10
2017-11-17T11:01:36.224Z,49.03
2017-11-17T11:04:03.730Z,38.63
2017-11-17T11:06:31.720Z,42.60
2017-11-17T11:08:59.309Z,42.67
2017-11-17T11:11:32.407Z,39.53
2017-11-17T11:13:59.920Z,44.05
2017-11-17T11:16:27.818Z,37.83
2017-11-17T11:18:55.300Z,46.80
2017-11-17T11:21:22.812Z,45.03
2017-11-17T11:23:50.684Z,46.88
2017-11-17T11:26:18.586Z,45.05
2017-11-17T11:28:46.092Z,37.22
2017-11-17T11:31:14.909Z,44.75
2017-11-17T11:33:42.417Z,34.03
2017-11-17T11:36:09.949Z,45.53
2017-11-17T11:38:37.485Z,36.45
2017-11-17T11:41:04.986Z,45.92
2017-11-17T11:43:32.560Z,34.13
2017-11-17T11:46:00.072Z,41.25
2017-11-17T11:48:27.681Z,35.92
2017-11-17T11:50:55.217Z,51.22
2017-11-17T11:53:22.736Z,43.70
2017-11-17T11:55:50.264Z,48.67
2017-11-17T11:58:19.001Z,43.25
2017-11-17T12:00:46.500Z,40.88
2017-11-17T12:03:13.999Z,36.55
2017-11-17T12:05:41.482Z,43.20
2017-11-17T12:08:10.960Z,48.60
2017-11-17T12:10:38.459Z,45.03
2017-11-17T12:13:05.968Z,44.45
2017-11-17T12:15:33.882Z,42.55
2017-11-17T12:18:03.367Z,38.22
2017-11-17T12:20:30.855Z,37.20
2017-11-17T12:22:58.352Z,45.38
2017-11-17T12:25:25.867Z,39.70
2017-11-17T12:27:54.424Z,33.30
2017-11-17T12:30:21.912Z,46.28
2017-11-17T12:32:49.392Z,42.83
2017-11-17T12:35:16.892Z,39.60
2017-11-17T12:37:44.386Z,42.50
2017-11-17T12:40:11.913Z,41.17
2017-11-17T12:42:39.412Z,43.90
2017-11-17T12:45:06.933Z,48.72
2017-11-17T12:47:34.422Z,50.60
2017-11-17T12:50:01.929Z,48.53
2017-11-17T12:52:29.424Z,57.00
2017-11-17T12:54:56.908Z,42.92
2017-11-17T12:57:24.449Z,44.60
2017-11-17T12:59:51.913Z,49.17
2017-11-17T13:02:19.540Z,43.42
2017-11-17T13:04:47.081Z,40.70
2017-11-17T13:07:14.573Z,52.83
2017-11-17T13:09:42.092Z,37.53
2017-11-17T13:12:09.582Z,53.22
2017-11-17T13:14:39.059Z,43.70
2017-11-17T13:17:06.581Z,39.22
2017-11-17T13:19:34.094Z,40.00
2017-11-17T13:22:03.598Z,35.78
2017-11-17T13:24:31.105Z,31.65
2017-11-17T13:26:58.608Z,46.65
2017-11-17T13:29:26.261Z,44.55
2017-11-17T13:31:53.831Z,51.50
2017-11-17T13:34:21.364Z,42.95
2017-11-17T13:36:50.861Z,38.05
2017-11-17T13:39:18.796Z,51.80
2017-11-17T13:41:46.285Z,43.90
2017-11-17T13:44:14.200Z,42.85
2017-11-17T13:46:41.684Z,52.15
2017-11-17T13:49:09.185Z,45.12
2017-11-17T13:51:36.673Z,34.33
2017-11-17T13:54:06.155Z,41.50
2017-11-17T13:56:33.643Z,45.85
2017-11-17T13:59:01.149Z,40.10
2017-11-17T14:01:29.041Z,49.45
2017-11-17T14:03:56.555Z,44.90
2017-11-17T14:06:26.023Z,47.92
2017-11-17T14:08:53.511Z,45.40
2017-11-17T14:11:21.003Z,48.30
2017-11-17T14:13:48.876Z,44.05
2017-11-17T14:16:16.782Z,55.08
2017-11-17T14:18:44.818Z,42.85
2017-11-17T14:21:14.244Z,40.38
2017-11-17T14:23:41.791Z,50.08
2017-11-17T14:26:09.363Z,40.08
2017-11-17T14:28:36.852Z,41.42
2017-11-17T14:31:05.289Z,41.67
2017-11-17T14:33:32.825Z,40.17
2017-11-17T14:36:00.802Z,42.17
2017-11-17T14:38:29.416Z,40.47
2017-11-17T14:40:56.899Z,43.53
2017-11-17T14:43:24.388Z,41.60
2017-11-17T14:45:52.294Z,50.03
2017-11-17T14:48:19.776Z,38.97
2017-11-17T14:50:47.284Z,50.25
2017-11-17T14:53:14.774Z,40.58
2017-11-17T14:55:42.269Z,48.72
2017-11-17T14:58:09.853Z,36.80
2017-11-17T15:00:38.713Z,42.88
2017-11-17T15:03:06.212Z,34.95
2017-11-17T15:05:33.725Z,38.30
2017-11-17T15:08:01.221Z,38.88
2017-11-17T15:10:29.127Z,40.72
2017-11-17T15:12:56.637Z,50.70
2017-11-17T15:15:24.156Z,52.08
2017-11-17T15:17:51.645Z,48.72
2017-11-17T15:20:19.555Z,36.60
2017-11-17T15:22:47.096Z,30.73
2017-11-17T15:25:14.604Z,35.63
2017-11-17T15:27:42.094Z,45.55
2017-11-17T15:30:10.044Z,39.08
2017-11-17T15:32:37.532Z,31.17
2017-11-17T15:35:05.454Z,49.75
2017-11-17T15:37:32.942Z,42.75
2017-11-17T15:40:00.858Z,39.30
2017-11-17T15:42:28.395Z,43.70
2017-11-17T15:44:55.892Z,37.40
2017-11-17T15:47:23.403Z,36.65
2017-11-17T15:49:51.287Z,44.88
2017-11-17T15:52:19.844Z,36.65
2017-11-17T15:54:47.717Z,43.92
2017-11-17T15:57:15.673Z,39.85
2017-11-17T15:59:43.539Z,38.67
2017-11-17T16:02:11.432Z,35.10
2017-11-17T16:04:38.971Z,44.17
2017-11-17T16:07:06.860Z,44.20
2017-11-17T16:09:34.365Z,44.17
2017-11-17T16:12:01.862Z,41.13
2017-11-17T16:14:29.827Z,52.97
2017-11-17T16:16:57.768Z,40.50
2017-11-17T16:19:26.199Z,44.25
2017-11-17T16:21:53.709Z,41.92
2017-11-17T16:24:21.209Z,37.55
2017-11-17T16:26:48.737Z,48.13
2017-11-17T16:29:16.675Z,45.25
2017-11-17T16:31:44.184Z,57.97
2017-11-17T16:34:11.712Z,52.72
2017-11-17T16:36:39.200Z,45.45
2017-11-17T16:39:08.107Z,43.72
2017-11-17T16:41:35.628Z,40.15
2017-11-17T16:44:03.547Z,45.50
2017-11-17T16:46:31.034Z,47.83
2017-11-17T16:48:58.537Z,45.67
2017-11-17T16:51:26.081Z,50.47
2017-11-17T16:53:53.980Z,50.20
2017-11-17T16:56:21.464Z,43.67
2017-11-17T16:58:48.951Z,52.58
2017-11-17T17:01:16.453Z,44.08
2017-11-17T17:03:43.959Z,54.05
2017-11-17T17:06:11.469Z,54.80
2017-11-17T17:08:39.054Z,48.97
2017-11-17T17:11:06.557Z,53.95
2017-11-17T17:13:35.388Z,57.65
2017-11-17T17:16:02.869Z,53.58
2017-11-17T17:18:30.375Z,57.00
2017-11-17T17:20:57.892Z,49.03
2017-11-17T17:23:25.411Z,50.88
2017-11-17T17:25:53.828Z,56.05
2017-11-17T17:28:21.376Z,61.13
2017-11-17T17:30:49.833Z,50.92
2017-11-17T17:33:17.317Z,56.35
2017-11-17T17:35:45.679Z,46.95
2017-11-17T17:38:13.167Z,52.95
2017-11-17T17:40:42.619Z,50.35
2017-11-17T17:43:10.110Z,53.00
2017-11-17T17:45:37.625Z,51.97
2017-11-17T17:48:05.134Z,58.63
2017-11-17T17:50:32.633Z,48.20
2017-11-17T17:53:00.135Z,51.42
2017-11-17T17:55:27.621Z,48.65
2017-11-17T17:57:55.135Z,61.50
2017-11-17T18:00:22.629Z,48.15
2017-11-17T18:02:50.147Z,58.35
2017-11-17T18:05:17.642Z,68.50
2017-11-17T18:07:45.228Z,55.22
2017-11-17T18:10:13.217Z,69.45
2017-11-17T18:12:40.717Z,65.25
2017-11-17T18:15:08.245Z,60.45
2017-11-17T18:17:35.751Z,54.25
2017-11-17T18:20:03.345Z,58.70
2017-11-17T18:22:31.241Z,70.15
2017-11-17T18:24:58.760Z,78.43
2017-11-17T18:27:26.662Z,69.18
2017-11-17T18:29:54.229Z,56.42
2017-11-17T18:32:21.798Z,72.00
2017-11-17T18:34:49.268Z,86.57
2017-11-17T18:37:16.808Z,65.80
2017-11-17T18:39:44.309Z,63.20
2017-11-17T18:42:12.229Z,58.87
2017-11-17T18:44:40.653Z,60.10
2017-11-17T18:47:09.140Z,53.33
2017-11-17T18:49:36.625Z,58.67
2017-11-17T18:52:04.117Z,71.43
2017-11-17T18:54:33.736Z,59.10
2017-11-17T18:57:01.229Z,59.97
2017-11-17T18:59:29.143Z,44.50
2017-11-17T19:01:56.637Z,60.15
2017-11-17T19:04:24.187Z,59.03
2017-11-17T19:06:51.737Z,64.20
2017-11-17T19:09:20.159Z,63.92
2017-11-17T19:11:47.652Z,63.20
2017-11-17T19:14:15.185Z,56.67
2017-11-17T19:16:43.151Z,55.30
2017-11-17T19:19:10.604Z,55.12
2017-11-17T19:21:38.495Z,55.88
2017-11-17T19:24:07.972Z,57.40
2017-11-17T19:26:35.873Z,57.83
2017-11-17T19:29:03.359Z,47.88
2017-11-17T19:31:30.858Z,64.50
2017-11-17T19:33:58.787Z,64.22
2017-11-17T19:36:26.269Z,64.45
2017-11-17T19:38:55.757Z,60.65
2017-11-17T19:41:25.172Z,58.00
2017-11-17T19:43:52.673Z,56.83
2017-11-17T19:46:22.176Z,49.55
2017-11-17T19:48:49.691Z,45.97
2017-11-17T19:51:17.173Z,50.17
2017-11-17T19:53:45.089Z,63.67
2017-11-17T19:56:12.600Z,66.03
2017-11-17T19:58:40.124Z,63.55
2017-11-17T20:01:07.637Z,49.08
2017-11-17T20:03:35.120Z,56.30
2017-11-17T20:06:02.622Z,58.95
2017-11-17T20:08:30.503Z,55.45
2017-11-17T20:10:58.408Z,69.18
2017-11-17T20:13:25.921Z,43.80
2017-11-17T20:15:53.797Z,50.00
2017-11-17T20:18:21.304Z,50.40
2017-11-17T20:20:48.812Z,53.42
2017-11-17T20:23:16.720Z,52.03
2017-11-17T20:25:44.204Z,51.97
2017-11-17T20:28:11.747Z,55.42
2017-11-17T20:30:39.241Z,57.50
2017-11-17T20:33:08.700Z,52.28
2017-11-17T20:35:36.188Z,55.65
2017-11-17T20:38:08.063Z,44.13
2017-11-17T20:40:38.226Z,57.58
2017-11-17T20:43:06.864Z,62.20
2017-11-17T20:45:37.292Z,52.05
2017-11-17T20:48:04.776Z,56.72
2017-11-17T20:50:33.234Z,59.55
2017-11-17T20:53:02.943Z,56.13
2017-11-17T20:55:33.001Z,63.10
2017-11-17T20:58:02.057Z,66.57
2017-11-17T21:00:31.897Z,69.35
2017-11-17T21:02:59.815Z,67.12
2017-11-17T21:05:27.377Z,62.10
2017-11-17T21:07:54.917Z,69.47
2017-11-17T21:10:22.426Z,77.47
2017-11-17T21:12:50.337Z,63.63
2017-11-17T21:15:17.877Z,59.95
2017-11-17T21:17:47.400Z,61.08
2017-11-17T21:20:14.908Z,55.75
2017-11-17T21:22:43.730Z,51.05
2017-11-17T21:25:11.254Z,54.33
2017-11-17T21:27:39.175Z,60.22
2017-11-17T21:30:06.661Z,63.55
2017-11-17T21:32:34.159Z,63.15
2017-11-17T21:35:01.653Z,56.33
2017-11-17T21:37:29.141Z,64.80
2017-11-17T21:39:56.651Z,59.75
2017-11-17T21:42:24.154Z,61.35
2017-11-17T21:44:51.681Z,53.38
2017-11-17T21:47:19.196Z,64.15
2017-11-17T21:49:48.073Z,44.22
2017-11-17T21:52:15.558Z,57.13
2017-11-17T21:54:43.057Z,60.58
2017-11-17T21:57:10.571Z,66.50
2017-11-17T21:59:39.273Z,57.38
2017-11-17T22:02:06.799Z,55.47
2017-11-17T22:04:34.680Z,63.45
2017-11-17T22:07:03.000Z,49.65
2017-11-17T22:09:30.511Z,59.05
2017-11-17T22:11:58.405Z,50.78
2017-11-17T22:14:27.941Z,49.47
2017-11-17T22:16:55.474Z,46.20
2017-11-17T22:19:22.976Z,51.20
2017-11-17T22:21:50.492Z,49.45
2017-11-17T22:24:18.465Z,37.00
2017-11-17T22:26:46.010Z,46.47
2017-11-17T22:29:13.525Z,56.83
2017-11-17T22:31:41.970Z,42.10
2017-11-17T22:34:09.521Z,58.55
2017-11-17T22:36:37.040Z,58.15
2017-11-17T22:39:04.961Z,67.22
2017-11-17T22:41:32.463Z,55.00
2017-11-17T22:44:00.377Z,48.00
2017-11-17T22:46:27.903Z,62.83
2017-11-17T22:48:55.413Z,62.30
2017-11-17T22:51:22.943Z,53.40
2017-11-17T22:53:50.467Z,43.22
2017-11-17T22:56:18.355Z,60.95
2017-11-17T22:58:45.861Z,66.80
2017-11-17T23:01:13.400Z,52.50
2017-11-17T23:03:40.900Z,55.85
2017-11-17T23:06:08.432Z,50.45
2017-11-17T23:08:37.906Z,57.35
2017-11-17T23:11:05.415Z,55.38
2017-11-17T23:13:32.953Z,50.15
2017-11-17T23:16:00.477Z,64.50
2017-11-17T23:18:27.978Z,50.90
2017-11-17T23:20:55.501Z,61.92
2017-11-17T23:23:23.694Z,69.75
2017-11-17T23:25:51.199Z,52.30
2017-11-17T23:28:19.266Z,50.15
2017-11-17T23:30:46.797Z,56.10
2017-11-17T23:33:14.292Z,57.45
2017-11-17T23:35:42.184Z,57.60
2017-11-17T23:38:09.936Z,57.13
2017-11-17T23:40:37.477Z,58.80
2017-11-17T23:43:05.360Z,40.97
2017-11-17T23:45:32.869Z,52.75
2017-11-17T23:48:00.370Z,62.80
2017-11-17T23:50:28.427Z,46.08
2017-11-17T23:52:58.382Z,66.60
2017-11-17T23:55:25.920Z,42.67
2017-11-17T23:57:53.475Z,52.35
